sensor_id;sensor_type;location;lat;lon;timestamp;temperature;humidity
45619;DHT22;31343;47.520;19.144;2023-07-20T00:00:07;24.80;99.90
45619;DHT22;31343;47.520;19.144;2023-07-20T00:02:33;24.80;99.90
45619;DHT22;31343;47.520;19.144;2023-07-20T00:04:58;24.70;99.90
45619;DHT22;31343;47.520;19.144;2023-07-20T00:07:25;24.80;99.90
45619;DHT22;31343;47.520;19.144;2023-07-20T00:09:51;24.70;99.90
45619;DHT22;31343;47.520;19.144;2023-07-20T00:12:16;24.70;99.90
45619;DHT22;31343;47.520;19.144;2023-07-20T00:14:42;24.70;99.90
45619;DHT22;31343;47.520;19.144;2023-07-20T00:17:08;24.60;99.90
45619;DHT22;31343;47.520;19.144;2023-07-20T00:19:34;24.60;99.90
45619;DHT22;31343;47.520;19.144;2023-07-20T00:22:00;24.60;99.90
45619;DHT22;31343;47.520;19.144;2023-07-20T00:24:27;24.50;99.90
45619;DHT22;31343;47.520;19.144;2023-07-20T00:26:53;24.50;99.90
45619;DHT22;31343;47.520;19.144;2023-07-20T00:29:18;24.50;99.90
45619;DHT22;31343;47.520;19.144;2023-07-20T00:31:45;24.50;99.90
45619;DHT22;31343;47.520;19.144;2023-07-20T00:34:11;24.50;99.90
45619;DHT22;31343;47.520;19.144;2023-07-20T00:36:38;24.50;99.90
45619;DHT22;31343;47.520;19.144;2023-07-20T00:39:04;24.40;99.90
45619;DHT22;31343;47.520;19.144;2023-07-20T00:41:29;24.40;99.90
45619;DHT22;31343;47.520;19.144;2023-07-20T00:43:55;24.50;99.90
45619;DHT22;31343;47.520;19.144;2023-07-20T00:46:23;24.50;99.90
45619;DHT22;31343;47.520;19.144;2023-07-20T00:48:53;24.40;99.90
45619;DHT22;31343;47.520;19.144;2023-07-20T00:51:21;24.50;99.90
45619;DHT22;31343;47.520;19.144;2023-07-20T00:53:47;24.40;99.90
45619;DHT22;31343;47.520;19.144;2023-07-20T00:56:12;24.30;99.90
45619;DHT22;31343;47.520;19.144;2023-07-20T00:58:38;24.40;99.90
45619;DHT22;31343;47.520;19.144;2023-07-20T01:01:04;24.30;99.90
45619;DHT22;31343;47.520;19.144;2023-07-20T01:03:30;24.30;99.90
45619;DHT22;31343;47.520;19.144;2023-07-20T01:06:16;24.30;99.90
45619;DHT22;31343;47.520;19.144;2023-07-20T01:11:32;24.30;99.90
45619;DHT22;31343;47.520;19.144;2023-07-20T01:14:01;24.10;99.90
45619;DHT22;31343;47.520;19.144;2023-07-20T01:16:27;24.10;99.90
45619;DHT22;31343;47.520;19.144;2023-07-20T01:18:53;24.00;99.90
45619;DHT22;31343;47.520;19.144;2023-07-20T01:21:45;24.10;99.90
45619;DHT22;31343;47.520;19.144;2023-07-20T01:32:56;24.10;99.90
45619;DHT22;31343;47.520;19.144;2023-07-20T01:35:28;24.10;99.90
45619;DHT22;31343;47.520;19.144;2023-07-20T01:37:55;24.10;99.90
45619;DHT22;31343;47.520;19.144;2023-07-20T01:40:22;24.20;99.90
45619;DHT22;31343;47.520;19.144;2023-07-20T01:42:49;24.10;99.90
45619;DHT22;31343;47.520;19.144;2023-07-20T01:45:15;24.00;99.90
45619;DHT22;31343;47.520;19.144;2023-07-20T01:47:40;24.00;99.90
45619;DHT22;31343;47.520;19.144;2023-07-20T01:50:07;24.00;99.90
45619;DHT22;31343;47.520;19.144;2023-07-20T01:52:32;23.90;99.90
45619;DHT22;31343;47.520;19.144;2023-07-20T01:54:58;23.90;99.90
45619;DHT22;31343;47.520;19.144;2023-07-20T01:57:24;23.90;99.90
45619;DHT22;31343;47.520;19.144;2023-07-20T01:59:49;23.90;99.90
45619;DHT22;31343;47.520;19.144;2023-07-20T02:02:15;23.90;99.90
45619;DHT22;31343;47.520;19.144;2023-07-20T02:04:41;24.00;99.90
45619;DHT22;31343;47.520;19.144;2023-07-20T02:07:06;23.90;99.90
45619;DHT22;31343;47.520;19.144;2023-07-20T02:09:32;23.90;99.90
45619;DHT22;31343;47.520;19.144;2023-07-20T02:11:58;23.90;99.90
45619;DHT22;31343;47.520;19.144;2023-07-20T02:14:23;23.90;99.90
45619;DHT22;31343;47.520;19.144;2023-07-20T02:16:49;23.90;99.90
45619;DHT22;31343;47.520;19.144;2023-07-20T02:19:20;23.90;99.90
45619;DHT22;31343;47.520;19.144;2023-07-20T02:21:46;23.80;99.90
45619;DHT22;31343;47.520;19.144;2023-07-20T02:24:13;23.70;99.90
45619;DHT22;31343;47.520;19.144;2023-07-20T02:26:38;23.70;99.90
45619;DHT22;31343;47.520;19.144;2023-07-20T02:29:04;23.60;99.90
45619;DHT22;31343;47.520;19.144;2023-07-20T02:31:30;23.70;99.90
45619;DHT22;31343;47.520;19.144;2023-07-20T02:33:57;23.70;99.90
45619;DHT22;31343;47.520;19.144;2023-07-20T02:36:23;23.70;99.90
45619;DHT22;31343;47.520;19.144;2023-07-20T02:38:48;23.60;99.90
45619;DHT22;31343;47.520;19.144;2023-07-20T02:41:14;23.60;99.90
45619;DHT22;31343;47.520;19.144;2023-07-20T02:43:40;23.70;99.90
45619;DHT22;31343;47.520;19.144;2023-07-20T02:46:06;23.60;99.90
45619;DHT22;31343;47.520;19.144;2023-07-20T02:48:31;23.60;99.90
45619;DHT22;31343;47.520;19.144;2023-07-20T02:50:57;23.60;99.90
45619;DHT22;31343;47.520;19.144;2023-07-20T02:53:23;23.60;99.90
45619;DHT22;31343;47.520;19.144;2023-07-20T02:55:48;23.60;99.90
45619;DHT22;31343;47.520;19.144;2023-07-20T02:58:14;23.50;99.90
45619;DHT22;31343;47.520;19.144;2023-07-20T03:00:42;23.40;99.90
45619;DHT22;31343;47.520;19.144;2023-07-20T03:03:08;23.40;99.90
45619;DHT22;31343;47.520;19.144;2023-07-20T03:05:35;23.40;99.90
45619;DHT22;31343;47.520;19.144;2023-07-20T03:08:03;23.50;99.90
45619;DHT22;31343;47.520;19.144;2023-07-20T03:10:31;23.40;99.90
45619;DHT22;31343;47.520;19.144;2023-07-20T03:12:58;23.40;99.90
45619;DHT22;31343;47.520;19.144;2023-07-20T03:15:23;23.30;99.90
45619;DHT22;31343;47.520;19.144;2023-07-20T03:17:49;23.40;99.90
45619;DHT22;31343;47.520;19.144;2023-07-20T03:20:15;23.30;99.90
45619;DHT22;31343;47.520;19.144;2023-07-20T03:22:41;23.40;99.90
45619;DHT22;31343;47.520;19.144;2023-07-20T03:25:07;23.30;99.90
45619;DHT22;31343;47.520;19.144;2023-07-20T03:27:33;23.30;99.90
45619;DHT22;31343;47.520;19.144;2023-07-20T03:29:59;23.30;99.90
45619;DHT22;31343;47.520;19.144;2023-07-20T03:32:24;23.20;99.90
45619;DHT22;31343;47.520;19.144;2023-07-20T03:34:50;23.20;99.90
45619;DHT22;31343;47.520;19.144;2023-07-20T03:37:16;23.20;99.90
45619;DHT22;31343;47.520;19.144;2023-07-20T03:39:42;23.20;99.90
45619;DHT22;31343;47.520;19.144;2023-07-20T03:42:07;23.20;99.90
45619;DHT22;31343;47.520;19.144;2023-07-20T03:44:33;23.20;99.90
45619;DHT22;31343;47.520;19.144;2023-07-20T03:46:59;23.20;99.90
45619;DHT22;31343;47.520;19.144;2023-07-20T03:49:24;23.20;99.90
45619;DHT22;31343;47.520;19.144;2023-07-20T03:51:50;23.20;99.90
45619;DHT22;31343;47.520;19.144;2023-07-20T03:54:16;23.20;99.90
45619;DHT22;31343;47.520;19.144;2023-07-20T03:56:42;23.20;99.90
45619;DHT22;31343;47.520;19.144;2023-07-20T03:59:07;23.20;99.90
45619;DHT22;31343;47.520;19.144;2023-07-20T04:01:33;23.20;99.90
45619;DHT22;31343;47.520;19.144;2023-07-20T04:04:05;23.30;99.90
45619;DHT22;31343;47.520;19.144;2023-07-20T04:06:32;23.40;99.90
45619;DHT22;31343;47.520;19.144;2023-07-20T04:08:57;23.40;99.90
45619;DHT22;31343;47.520;19.144;2023-07-20T04:11:23;23.50;99.90
45619;DHT22;31343;47.520;19.144;2023-07-20T04:13:49;23.60;99.90
45619;DHT22;31343;47.520;19.144;2023-07-20T04:16:15;23.60;99.90
45619;DHT22;31343;47.520;19.144;2023-07-20T04:18:41;23.70;99.90
45619;DHT22;31343;47.520;19.144;2023-07-20T04:21:08;23.70;99.90
45619;DHT22;31343;47.520;19.144;2023-07-20T04:23:34;23.80;99.90
45619;DHT22;31343;47.520;19.144;2023-07-20T04:26:01;23.80;99.90
45619;DHT22;31343;47.520;19.144;2023-07-20T04:28:28;23.80;99.90
45619;DHT22;31343;47.520;19.144;2023-07-20T04:30:54;23.90;99.90
45619;DHT22;31343;47.520;19.144;2023-07-20T04:33:19;24.00;99.90
45619;DHT22;31343;47.520;19.144;2023-07-20T04:35:53;24.00;99.90
45619;DHT22;31343;47.520;19.144;2023-07-20T04:38:21;24.10;99.90
45619;DHT22;31343;47.520;19.144;2023-07-20T04:40:48;24.10;99.90
45619;DHT22;31343;47.520;19.144;2023-07-20T04:43:15;24.20;99.90
45619;DHT22;31343;47.520;19.144;2023-07-20T04:45:41;24.30;99.90
45619;DHT22;31343;47.520;19.144;2023-07-20T04:48:11;24.30;99.90
45619;DHT22;31343;47.520;19.144;2023-07-20T04:50:38;24.50;99.90
45619;DHT22;31343;47.520;19.144;2023-07-20T04:53:05;24.50;99.90
45619;DHT22;31343;47.520;19.144;2023-07-20T04:55:31;24.70;99.90
45619;DHT22;31343;47.520;19.144;2023-07-20T04:58:00;24.90;99.90
45619;DHT22;31343;47.520;19.144;2023-07-20T05:00:26;25.00;99.70
45619;DHT22;31343;47.520;19.144;2023-07-20T05:02:52;25.10;99.30
45619;DHT22;31343;47.520;19.144;2023-07-20T05:05:17;25.30;99.00
45619;DHT22;31343;47.520;19.144;2023-07-20T05:07:43;25.30;98.80
45619;DHT22;31343;47.520;19.144;2023-07-20T05:10:09;25.40;98.90
45619;DHT22;31343;47.520;19.144;2023-07-20T05:12:35;25.50;98.50
45619;DHT22;31343;47.520;19.144;2023-07-20T05:15:00;25.70;98.50
45619;DHT22;31343;47.520;19.144;2023-07-20T05:17:26;26.00;97.90
45619;DHT22;31343;47.520;19.144;2023-07-20T05:19:52;26.10;97.20
45619;DHT22;31343;47.520;19.144;2023-07-20T05:22:19;26.10;97.20
45619;DHT22;31343;47.520;19.144;2023-07-20T05:24:44;26.30;96.50
45619;DHT22;31343;47.520;19.144;2023-07-20T05:27:10;26.30;96.30
45619;DHT22;31343;47.520;19.144;2023-07-20T05:29:36;26.60;96.00
45619;DHT22;31343;47.520;19.144;2023-07-20T05:32:02;26.70;95.60
45619;DHT22;31343;47.520;19.144;2023-07-20T05:34:28;27.40;95.10
45619;DHT22;31343;47.520;19.144;2023-07-20T05:36:55;27.90;94.20
45619;DHT22;31343;47.520;19.144;2023-07-20T05:39:21;28.50;93.50
45619;DHT22;31343;47.520;19.144;2023-07-20T05:41:46;28.80;92.80
45619;DHT22;31343;47.520;19.144;2023-07-20T05:44:12;29.10;91.90
45619;DHT22;31343;47.520;19.144;2023-07-20T05:46:38;29.40;91.30
45619;DHT22;31343;47.520;19.144;2023-07-20T05:49:04;30.30;90.70
45619;DHT22;31343;47.520;19.144;2023-07-20T05:51:29;30.80;90.10
45619;DHT22;31343;47.520;19.144;2023-07-20T05:53:55;31.50;88.10
45619;DHT22;31343;47.520;19.144;2023-07-20T05:56:21;31.40;85.50
45619;DHT22;31343;47.520;19.144;2023-07-20T05:58:46;32.10;84.70
45619;DHT22;31343;47.520;19.144;2023-07-20T06:01:12;32.10;83.50
45619;DHT22;31343;47.520;19.144;2023-07-20T06:03:38;32.20;82.50
45619;DHT22;31343;47.520;19.144;2023-07-20T06:06:04;32.40;81.80
45619;DHT22;31343;47.520;19.144;2023-07-20T06:08:31;32.20;81.70
45619;DHT22;31343;47.520;19.144;2023-07-20T06:10:57;32.40;80.60
45619;DHT22;31343;47.520;19.144;2023-07-20T06:13:23;32.80;79.90
45619;DHT22;31343;47.520;19.144;2023-07-20T06:15:49;33.10;79.10
45619;DHT22;31343;47.520;19.144;2023-07-20T06:18:15;33.50;78.30
45619;DHT22;31343;47.520;19.144;2023-07-20T06:20:41;34.00;77.90
45619;DHT22;31343;47.520;19.144;2023-07-20T06:23:07;34.40;77.00
45619;DHT22;31343;47.520;19.144;2023-07-20T06:25:32;34.30;76.10
45619;DHT22;31343;47.520;19.144;2023-07-20T06:27:58;34.60;75.20
45619;DHT22;31343;47.520;19.144;2023-07-20T06:30:24;33.70;74.60
45619;DHT22;31343;47.520;19.144;2023-07-20T06:32:50;33.60;74.50
45619;DHT22;31343;47.520;19.144;2023-07-20T06:35:16;33.70;75.50
45619;DHT22;31343;47.520;19.144;2023-07-20T06:37:42;33.70;75.10
45619;DHT22;31343;47.520;19.144;2023-07-20T06:40:08;33.50;74.60
45619;DHT22;31343;47.520;19.144;2023-07-20T06:42:35;33.90;74.80
45619;DHT22;31343;47.520;19.144;2023-07-20T06:45:01;33.20;74.20
45619;DHT22;31343;47.520;19.144;2023-07-20T06:47:26;33.90;74.40
45619;DHT22;31343;47.520;19.144;2023-07-20T06:49:52;34.60;73.40
45619;DHT22;31343;47.520;19.144;2023-07-20T06:52:18;34.90;72.50
45619;DHT22;31343;47.520;19.144;2023-07-20T06:54:44;35.30;71.80
45619;DHT22;31343;47.520;19.144;2023-07-20T06:57:10;34.90;71.60
45619;DHT22;31343;47.520;19.144;2023-07-20T06:59:35;35.50;71.70
45619;DHT22;31343;47.520;19.144;2023-07-20T07:02:01;36.20;71.00
45619;DHT22;31343;47.520;19.144;2023-07-20T07:04:27;35.50;69.90
45619;DHT22;31343;47.520;19.144;2023-07-20T07:06:53;34.50;70.50
45619;DHT22;31343;47.520;19.144;2023-07-20T07:09:18;34.90;71.50
45619;DHT22;31343;47.520;19.144;2023-07-20T07:11:44;34.90;70.70
45619;DHT22;31343;47.520;19.144;2023-07-20T07:14:11;35.00;70.60
45619;DHT22;31343;47.520;19.144;2023-07-20T07:16:37;34.90;69.90
45619;DHT22;31343;47.520;19.144;2023-07-20T07:19:03;34.60;71.00
45619;DHT22;31343;47.520;19.144;2023-07-20T07:21:29;34.50;70.60
45619;DHT22;31343;47.520;19.144;2023-07-20T07:23:55;34.00;70.00
45619;DHT22;31343;47.520;19.144;2023-07-20T07:26:23;32.90;72.10
45619;DHT22;31343;47.520;19.144;2023-07-20T07:28:49;33.10;72.70
45619;DHT22;31343;47.520;19.144;2023-07-20T07:31:15;33.00;72.30
45619;DHT22;31343;47.520;19.144;2023-07-20T07:33:41;32.90;72.60
45619;DHT22;31343;47.520;19.144;2023-07-20T07:36:07;32.80;73.00
45619;DHT22;31343;47.520;19.144;2023-07-20T07:38:33;33.00;72.90
45619;DHT22;31343;47.520;19.144;2023-07-20T07:40:59;33.60;72.30
45619;DHT22;31343;47.520;19.144;2023-07-20T07:43:25;33.20;71.90
45619;DHT22;31343;47.520;19.144;2023-07-20T07:45:53;33.30;72.50
45619;DHT22;31343;47.520;19.144;2023-07-20T07:48:19;32.60;70.90
45619;DHT22;31343;47.520;19.144;2023-07-20T07:50:46;32.60;72.80
45619;DHT22;31343;47.520;19.144;2023-07-20T07:53:12;32.80;72.10
45619;DHT22;31343;47.520;19.144;2023-07-20T07:55:38;32.40;71.80
45619;DHT22;31343;47.520;19.144;2023-07-20T07:58:04;33.30;72.20
45619;DHT22;31343;47.520;19.144;2023-07-20T08:00:29;33.10;70.80
45619;DHT22;31343;47.520;19.144;2023-07-20T08:02:55;33.40;70.20
45619;DHT22;31343;47.520;19.144;2023-07-20T08:05:21;33.70;70.00
45619;DHT22;31343;47.520;19.144;2023-07-20T08:07:47;33.90;68.40
45619;DHT22;31343;47.520;19.144;2023-07-20T08:10:13;33.80;68.30
45619;DHT22;31343;47.520;19.144;2023-07-20T08:12:38;33.10;67.90
45619;DHT22;31343;47.520;19.144;2023-07-20T08:15:05;33.20;67.70
45619;DHT22;31343;47.520;19.144;2023-07-20T08:17:30;33.30;68.00
45619;DHT22;31343;47.520;19.144;2023-07-20T08:19:56;33.60;67.00
45619;DHT22;31343;47.520;19.144;2023-07-20T08:22:22;33.50;66.70
45619;DHT22;31343;47.520;19.144;2023-07-20T08:24:48;33.40;67.70
45619;DHT22;31343;47.520;19.144;2023-07-20T08:27:13;33.10;67.40
45619;DHT22;31343;47.520;19.144;2023-07-20T08:29:39;33.60;67.80
45619;DHT22;31343;47.520;19.144;2023-07-20T08:32:06;33.90;67.60
45619;DHT22;31343;47.520;19.144;2023-07-20T08:34:32;34.40;66.90
45619;DHT22;31343;47.520;19.144;2023-07-20T08:36:58;34.40;66.10
45619;DHT22;31343;47.520;19.144;2023-07-20T08:39:24;34.00;66.10
45619;DHT22;31343;47.520;19.144;2023-07-20T08:41:50;34.30;66.50
45619;DHT22;31343;47.520;19.144;2023-07-20T08:44:17;34.10;66.20
45619;DHT22;31343;47.520;19.144;2023-07-20T08:46:44;34.60;65.50
45619;DHT22;31343;47.520;19.144;2023-07-20T08:49:11;34.80;65.70
45619;DHT22;31343;47.520;19.144;2023-07-20T08:51:37;34.80;64.80
45619;DHT22;31343;47.520;19.144;2023-07-20T08:54:04;35.00;64.50
45619;DHT22;31343;47.520;19.144;2023-07-20T08:56:31;34.90;64.40
45619;DHT22;31343;47.520;19.144;2023-07-20T08:58:59;35.20;63.60
45619;DHT22;31343;47.520;19.144;2023-07-20T09:01:27;35.30;63.30
45619;DHT22;31343;47.520;19.144;2023-07-20T09:03:53;34.40;63.00
45619;DHT22;31343;47.520;19.144;2023-07-20T09:06:19;34.00;63.40
45619;DHT22;31343;47.520;19.144;2023-07-20T09:08:45;33.60;64.40
45619;DHT22;31343;47.520;19.144;2023-07-20T09:11:12;33.70;65.20
45619;DHT22;31343;47.520;19.144;2023-07-20T09:13:41;34.10;65.00
45619;DHT22;31343;47.520;19.144;2023-07-20T09:16:06;33.90;64.20
45619;DHT22;31343;47.520;19.144;2023-07-20T09:18:33;33.50;64.70
45619;DHT22;31343;47.520;19.144;2023-07-20T09:21:05;33.10;64.70
45619;DHT22;31343;47.520;19.144;2023-07-20T09:23:36;33.00;64.40
45619;DHT22;31343;47.520;19.144;2023-07-20T09:26:14;33.00;64.40
45619;DHT22;31343;47.520;19.144;2023-07-20T09:28:49;32.80;65.70
45619;DHT22;31343;47.520;19.144;2023-07-20T09:31:17;32.60;65.80
45619;DHT22;31343;47.520;19.144;2023-07-20T09:33:43;32.60;65.80
45619;DHT22;31343;47.520;19.144;2023-07-20T09:36:12;32.50;66.30
45619;DHT22;31343;47.520;19.144;2023-07-20T09:38:41;32.70;66.20
45619;DHT22;31343;47.520;19.144;2023-07-20T09:41:08;32.80;66.90
45619;DHT22;31343;47.520;19.144;2023-07-20T09:43:36;32.90;66.90
45619;DHT22;31343;47.520;19.144;2023-07-20T09:46:02;32.50;66.10
45619;DHT22;31343;47.520;19.144;2023-07-20T09:48:29;32.80;67.20
45619;DHT22;31343;47.520;19.144;2023-07-20T09:50:56;33.10;66.10
45619;DHT22;31343;47.520;19.144;2023-07-20T09:53:24;33.00;65.60
45619;DHT22;31343;47.520;19.144;2023-07-20T09:55:52;33.10;65.00
45619;DHT22;31343;47.520;19.144;2023-07-20T09:58:21;33.00;65.20
45619;DHT22;31343;47.520;19.144;2023-07-20T10:00:49;32.90;65.40
45619;DHT22;31343;47.520;19.144;2023-07-20T10:03:20;32.90;66.10
45619;DHT22;31343;47.520;19.144;2023-07-20T10:06:06;33.10;65.50
45619;DHT22;31343;47.520;19.144;2023-07-20T10:08:35;32.60;65.20
45619;DHT22;31343;47.520;19.144;2023-07-20T10:11:03;31.50;66.70
45619;DHT22;31343;47.520;19.144;2023-07-20T10:13:29;31.60;66.90
45619;DHT22;31343;47.520;19.144;2023-07-20T10:16:02;31.90;66.70
45619;DHT22;31343;47.520;19.144;2023-07-20T10:18:46;32.10;67.40
45619;DHT22;31343;47.520;19.144;2023-07-20T10:21:17;32.40;67.10
45619;DHT22;31343;47.520;19.144;2023-07-20T10:23:45;32.40;66.80
45619;DHT22;31343;47.520;19.144;2023-07-20T10:26:11;32.10;66.70
45619;DHT22;31343;47.520;19.144;2023-07-20T10:28:38;32.10;68.30
45619;DHT22;31343;47.520;19.144;2023-07-20T10:31:07;31.80;67.10
45619;DHT22;31343;47.520;19.144;2023-07-20T10:33:34;31.80;67.50
45619;DHT22;31343;47.520;19.144;2023-07-20T10:36:04;31.90;68.00
45619;DHT22;31343;47.520;19.144;2023-07-20T10:38:42;31.80;67.70
45619;DHT22;31343;47.520;19.144;2023-07-20T10:43:45;32.00;67.40
45619;DHT22;31343;47.520;19.144;2023-07-20T10:46:12;31.60;67.00
45619;DHT22;31343;47.520;19.144;2023-07-20T10:49:00;31.80;67.10
45619;DHT22;31343;47.520;19.144;2023-07-20T10:51:26;32.10;67.20
45619;DHT22;31343;47.520;19.144;2023-07-20T10:53:52;32.30;66.30
45619;DHT22;31343;47.520;19.144;2023-07-20T10:56:21;32.10;65.00
45619;DHT22;31343;47.520;19.144;2023-07-20T10:58:47;32.00;65.90
45619;DHT22;31343;47.520;19.144;2023-07-20T11:01:15;31.70;64.20
45619;DHT22;31343;47.520;19.144;2023-07-20T11:03:41;31.50;64.80
45619;DHT22;31343;47.520;19.144;2023-07-20T11:09:07;31.40;64.80
45619;DHT22;31343;47.520;19.144;2023-07-20T11:11:34;31.20;64.60
45619;DHT22;31343;47.520;19.144;2023-07-20T11:14:06;31.20;64.30
45619;DHT22;31343;47.520;19.144;2023-07-20T11:18:59;30.80;65.20
45619;DHT22;31343;47.520;19.144;2023-07-20T11:21:25;31.00;66.20
45619;DHT22;31343;47.520;19.144;2023-07-20T11:23:52;31.20;65.40
45619;DHT22;31343;47.520;19.144;2023-07-20T11:26:18;31.80;65.80
45619;DHT22;31343;47.520;19.144;2023-07-20T11:28:49;32.70;65.80
45619;DHT22;31343;47.520;19.144;2023-07-20T11:31:15;33.10;64.60
45619;DHT22;31343;47.520;19.144;2023-07-20T11:33:44;33.20;63.80
45619;DHT22;31343;47.520;19.144;2023-07-20T11:36:09;33.20;64.50
45619;DHT22;31343;47.520;19.144;2023-07-20T11:38:36;32.80;64.80
45619;DHT22;31343;47.520;19.144;2023-07-20T11:41:05;32.80;65.00
45619;DHT22;31343;47.520;19.144;2023-07-20T11:43:30;32.30;64.80
45619;DHT22;31343;47.520;19.144;2023-07-20T11:45:56;32.70;64.30
45619;DHT22;31343;47.520;19.144;2023-07-20T11:48:23;33.30;62.60
45619;DHT22;31343;47.520;19.144;2023-07-20T11:50:49;34.10;62.90
45619;DHT22;31343;47.520;19.144;2023-07-20T11:53:15;34.90;62.20
45619;DHT22;31343;47.520;19.144;2023-07-20T11:55:41;35.40;60.40
45619;DHT22;31343;47.520;19.144;2023-07-20T11:58:09;36.40;59.50
45619;DHT22;31343;47.520;19.144;2023-07-20T12:00:37;36.80;58.50
45619;DHT22;31343;47.520;19.144;2023-07-20T12:03:06;36.30;58.80
45619;DHT22;31343;47.520;19.144;2023-07-20T12:05:37;36.70;58.80
45619;DHT22;31343;47.520;19.144;2023-07-20T12:08:04;36.70;58.00
45619;DHT22;31343;47.520;19.144;2023-07-20T12:10:29;37.00;58.00
45619;DHT22;31343;47.520;19.144;2023-07-20T12:13:01;36.80;57.10
45619;DHT22;31343;47.520;19.144;2023-07-20T12:15:27;37.50;57.00
45619;DHT22;31343;47.520;19.144;2023-07-20T12:17:56;38.00;56.70
45619;DHT22;31343;47.520;19.144;2023-07-20T12:20:31;38.00;55.80
45619;DHT22;31343;47.520;19.144;2023-07-20T12:23:04;38.40;55.70
45619;DHT22;31343;47.520;19.144;2023-07-20T12:25:45;37.70;54.40
45619;DHT22;31343;47.520;19.144;2023-07-20T12:28:13;37.80;55.70
45619;DHT22;31343;47.520;19.144;2023-07-20T12:30:41;36.90;55.20
45619;DHT22;31343;47.520;19.144;2023-07-20T12:33:06;37.00;56.40
45619;DHT22;31343;47.520;19.144;2023-07-20T12:35:33;36.60;55.70
45619;DHT22;31343;47.520;19.144;2023-07-20T12:37:59;37.00;55.30
45619;DHT22;31343;47.520;19.144;2023-07-20T12:40:25;37.50;54.10
45619;DHT22;31343;47.520;19.144;2023-07-20T12:42:51;37.50;53.50
45619;DHT22;31343;47.520;19.144;2023-07-20T12:45:18;37.50;53.00
45619;DHT22;31343;47.520;19.144;2023-07-20T12:47:43;37.60;52.70
45619;DHT22;31343;47.520;19.144;2023-07-20T12:50:11;36.90;52.80
45619;DHT22;31343;47.520;19.144;2023-07-20T12:52:39;36.60;53.20
45619;DHT22;31343;47.520;19.144;2023-07-20T12:55:06;36.20;53.30
45619;DHT22;31343;47.520;19.144;2023-07-20T12:57:32;35.70;53.80
45619;DHT22;31343;47.520;19.144;2023-07-20T12:59:58;35.10;54.30
45619;DHT22;31343;47.520;19.144;2023-07-20T13:02:24;34.80;54.80
45619;DHT22;31343;47.520;19.144;2023-07-20T13:04:49;34.50;55.00
45619;DHT22;31343;47.520;19.144;2023-07-20T13:07:15;34.10;55.80
45619;DHT22;31343;47.520;19.144;2023-07-20T13:09:41;33.70;56.10
45619;DHT22;31343;47.520;19.144;2023-07-20T13:12:08;33.20;56.40
45619;DHT22;31343;47.520;19.144;2023-07-20T13:14:34;33.20;57.10
45619;DHT22;31343;47.520;19.144;2023-07-20T13:16:59;33.40;57.80
45619;DHT22;31343;47.520;19.144;2023-07-20T13:19:26;32.90;57.90
45619;DHT22;31343;47.520;19.144;2023-07-20T13:21:52;33.10;58.30
45619;DHT22;31343;47.520;19.144;2023-07-20T13:24:18;33.10;56.80
45619;DHT22;31343;47.520;19.144;2023-07-20T13:26:44;33.00;56.70
45619;DHT22;31343;47.520;19.144;2023-07-20T13:29:09;32.90;56.90
45619;DHT22;31343;47.520;19.144;2023-07-20T13:31:35;32.80;57.20
45619;DHT22;31343;47.520;19.144;2023-07-20T13:34:01;32.70;57.40
45619;DHT22;31343;47.520;19.144;2023-07-20T13:36:28;32.70;57.80
45619;DHT22;31343;47.520;19.144;2023-07-20T13:38:54;32.70;57.40
45619;DHT22;31343;47.520;19.144;2023-07-20T13:41:19;32.70;57.60
45619;DHT22;31343;47.520;19.144;2023-07-20T13:43:45;32.80;58.00
45619;DHT22;31343;47.520;19.144;2023-07-20T13:46:11;32.50;57.30
45619;DHT22;31343;47.520;19.144;2023-07-20T13:48:37;32.40;57.80
45619;DHT22;31343;47.520;19.144;2023-07-20T13:51:02;32.30;57.60
45619;DHT22;31343;47.520;19.144;2023-07-20T13:53:28;32.20;57.80
45619;DHT22;31343;47.520;19.144;2023-07-20T13:55:54;32.10;58.10
45619;DHT22;31343;47.520;19.144;2023-07-20T13:58:20;32.10;58.10
45619;DHT22;31343;47.520;19.144;2023-07-20T14:00:45;32.10;58.50
45619;DHT22;31343;47.520;19.144;2023-07-20T14:03:11;32.20;58.50
45619;DHT22;31343;47.520;19.144;2023-07-20T14:05:37;32.10;57.70
45619;DHT22;31343;47.520;19.144;2023-07-20T14:08:03;32.00;58.20
45619;DHT22;31343;47.520;19.144;2023-07-20T14:10:29;32.10;58.50
45619;DHT22;31343;47.520;19.144;2023-07-20T14:12:54;32.10;58.30
45619;DHT22;31343;47.520;19.144;2023-07-20T14:15:21;31.90;58.20
45619;DHT22;31343;47.520;19.144;2023-07-20T14:17:47;31.80;58.80
45619;DHT22;31343;47.520;19.144;2023-07-20T14:20:12;31.80;58.70
45619;DHT22;31343;47.520;19.144;2023-07-20T14:22:38;31.90;59.10
45619;DHT22;31343;47.520;19.144;2023-07-20T14:25:04;31.90;58.90
45619;DHT22;31343;47.520;19.144;2023-07-20T14:27:30;31.80;58.90
45619;DHT22;31343;47.520;19.144;2023-07-20T14:29:56;31.70;59.10
45619;DHT22;31343;47.520;19.144;2023-07-20T14:32:21;31.60;59.10
45619;DHT22;31343;47.520;19.144;2023-07-20T14:34:48;31.60;59.40
45619;DHT22;31343;47.520;19.144;2023-07-20T14:37:14;31.50;60.10
45619;DHT22;31343;47.520;19.144;2023-07-20T14:39:40;31.50;60.10
45619;DHT22;31343;47.520;19.144;2023-07-20T14:42:06;31.60;60.30
45619;DHT22;31343;47.520;19.144;2023-07-20T14:44:33;31.60;60.20
45619;DHT22;31343;47.520;19.144;2023-07-20T14:46:59;31.70;60.30
45619;DHT22;31343;47.520;19.144;2023-07-20T14:49:26;31.80;59.70
45619;DHT22;31343;47.520;19.144;2023-07-20T14:51:51;31.70;59.70
45619;DHT22;31343;47.520;19.144;2023-07-20T14:54:18;31.70;60.00
45619;DHT22;31343;47.520;19.144;2023-07-20T14:56:51;31.70;59.50
45619;DHT22;31343;47.520;19.144;2023-07-20T14:59:20;31.60;60.10
45619;DHT22;31343;47.520;19.144;2023-07-20T15:01:46;31.20;59.80
45619;DHT22;31343;47.520;19.144;2023-07-20T15:04:15;31.10;59.90
45619;DHT22;31343;47.520;19.144;2023-07-20T15:06:41;30.90;60.70
45619;DHT22;31343;47.520;19.144;2023-07-20T15:09:07;30.80;59.70
45619;DHT22;31343;47.520;19.144;2023-07-20T15:11:35;30.70;60.60
45619;DHT22;31343;47.520;19.144;2023-07-20T15:14:02;30.80;61.00
45619;DHT22;31343;47.520;19.144;2023-07-20T15:16:28;30.90;60.00
45619;DHT22;31343;47.520;19.144;2023-07-20T15:18:55;30.90;60.20
45619;DHT22;31343;47.520;19.144;2023-07-20T15:21:20;30.90;59.90
45619;DHT22;31343;47.520;19.144;2023-07-20T15:23:48;30.90;59.90
45619;DHT22;31343;47.520;19.144;2023-07-20T15:26:14;30.90;59.90
45619;DHT22;31343;47.520;19.144;2023-07-20T15:28:42;30.80;60.30
45619;DHT22;31343;47.520;19.144;2023-07-20T15:31:07;30.60;60.40